KGLS/GLS METAR and TAF weather

Enter ICAO airport designator
Station Type Date Time Source
KGLS METAR 2018/12/15 04:52 UTC NOAA

KGLS 150452Z AUTO 30010KT 10SM OVC018 10/08 A3009 RMK AO2 SLP187 T01000078


Station Type Date Time Source
KGLS Decoded METAR 2018/12/15 04:52 UTC NOAA

SCHOLES FIELD, TX, United States (KGLS) 29-16N 094-52W 6M
Dec 14, 2018 - 11:52 PM EST / 2018.12.15 0452 UTC
Wind: from the WNW (300 degrees) at 12 MPH (10 KT):0
Visibility: 10 mile(s):0
Sky conditions: overcast
Temperature: 50.0 F (10.0 C)
Dew Point: 46.0 F (7.8 C)
Relative Humidity: 86%
Pressure (altimeter): 30.09 in. Hg (1018 hPa)
ob: KGLS 150452Z AUTO 30010KT 10SM OVC018 10/08 A3009 RMK AO2 SLP187 T01000078
cycle: 5

Station Type Date Time Source
KGLS TAF 2018/12/15 04:38 UTC NOAA

TAF
AMD KGLS 150332Z 1504/1524 31012G22KT P6SM OVC023
FM150600 30015KT P6SM OVC025
FM151400 30012KT P6SM SCT025
FM151800 32012G22KT P6SM FEW250


Example: see airport list